Latest Weather Observations for Norfolk Island

IDN60801

Issued at 11:12 am EDT Thursday 21 November 2019 (issued every 10 minutes, with the page automatically refreshed every 10 minutes)

About weather observations | Map of weather stations | Latest weather observations for NSW | Other Formats
Station Details ID: 200288 Name: NORFOLK ISLAND AERO Lat: -29.04 Lon: 167.94 Height: 111.73 m
Data from the previous 72 hours. | See also: Recent months at Norfolk Island

Observations are collected in the New South Wales time zone (Eastern Standard Time) which includes daylight savings in the summer period. Therefore 'Rain since 9am' totals and other values are based on the New South Wales time zone, which may differ from local time.

Date/Time
EDT
Temp
°C
App
Temp
°C
Dew
Point
°C
Rel
Hum
%
Delta-T
°C
Wind Press
QNH
hPa
Press
MSL
hPa
Rain since
9am
mm
Dir  Spd
km/h
Gust
km/h
Spd
kts
Gust
kts
21/11:00am 20.5 18.6 14.2 67 3.7 S 17 26 9 14 1020.7 1020.4 0.0
21/10:30am 20.7 18.4 14.1 66 3.8 S 19 26 10 14 1021.0 1020.7 0.0
21/10:00am 20.6 18.6 13.8 65 3.9 SE 17 24 9 13 1021.0 1020.7 0.0
21/09:30am 20.4 18.5 14.1 67 3.7 SSE 17 24 9 13 1021.0 1020.7 0.0
21/09:00am 20.1 18.5 13.8 67 3.6 SSE 15 20 8 11 1020.9 1020.6 0.0
21/08:30am 20.0 17.9 13.5 66 3.7 SSE 17 24 9 13 1020.9 1020.6 0.0
21/08:00am 20.1 18.1 13.8 67 3.6 SSE 17 24 9 13 1020.9 1020.6 0.0
21/07:30am 19.9 17.8 13.6 67 3.6 SSE 17 24 9 13 1020.7 1020.4 0.0
21/07:00am 19.4 17.5 13.1 67 3.6 SSE 15 22 8 12 1020.5 1020.2 0.0
21/06:30am 19.0 18.1 13.6 71 3.1 S 11 17 6 9 1020.1 1019.8 0.0
21/06:00am 18.2 17.0 12.9 71 3.0 S 11 15 6 8 1019.9 1019.6 0.0
21/05:30am 16.8 16.6 12.9 78 2.2 SSE 6 9 3 5 1019.6 1019.3 0.0
21/05:00am 16.4 16.0 12.4 77 2.2 SE 6 9 3 5 1019.3 1019.0 0.0
21/04:30am 15.8 16.0 11.8 77 2.2 ESE 2 7 1 4 1019.1 1018.8 0.0
21/04:00am 16.1 15.2 11.5 74 2.5 ESE 7 7 4 4 1018.8 1018.5 0.0
21/03:30am 16.6 15.4 11.7 73 2.7 ESE 9 11 5 6 1018.4 1018.1 0.0
21/03:00am 16.9 15.4 11.8 72 2.8 SE 11 15 6 8 1018.3 1018.0 0.0
21/02:30am 17.4 16.7 12.1 71 2.9 SSE 7 9 4 5 1018.3 1018.0 0.0
21/02:00am 17.7 16.2 11.9 69 3.2 SE 11 15 6 8 1018.4 1018.1 0.0
21/01:30am 17.7 16.7 12.2 70 3.1 E 9 13 5 7 1018.2 1017.9 0.0
21/01:00am 17.7 16.8 12.6 72 2.8 ESE 9 13 5 7 1018.3 1018.0 0.0
21/12:30am 17.6 16.6 12.3 71 2.9 ESE 9 13 5 7 1018.2 1017.9 0.0
21/12:00am 16.8 15.7 11.9 73 2.7 E 9 13 5 7 1018.4 1018.1 0.0
 
Date/Time
EDT
Temp
°C
App
Temp
°C
Dew
Point
°C
Rel
Hum
%
Delta-T
°C
Wind Press
QNH
hPa
Press
MSL
hPa
Rain since
9am
mm
Dir  Spd
km/h
Gust
km/h
Spd
kts
Gust
kts
20/11:30pm 17.4 16.1 11.2 67 3.4 ESE 9 13 5 7 1018.5 1018.2 0.0
20/11:00pm 17.2 15.1 11.2 68 3.3 ESE 13 19 7 10 1018.8 1018.5 0.0
20/10:30pm 17.6 15.4 12.1 70 3.0 ESE 15 24 8 13 1019.0 1018.7 0.0
20/10:00pm 17.9 15.7 12.1 69 3.2 SE 15 20 8 11 1019.3 1019.0 0.0
20/09:30pm 18.1 15.2 11.0 63 3.9 SE 17 26 9 14 1019.4 1019.1 0.0
20/09:00pm 17.9 15.6 11.9 68 3.3 SE 15 24 8 13 1019.4 1019.1 0.0
20/08:30pm 17.8 15.6 12.0 69 3.2 ESE 15 20 8 11 1019.2 1018.9 0.0
20/08:00pm 17.7 15.3 11.5 67 3.4 SE 15 26 8 14 1018.9 1018.6 0.0
20/07:30pm 17.8 15.1 11.8 68 3.3 SE 17 28 9 15 1018.5 1018.2 0.0
20/07:00pm 17.5 14.8 11.8 69 3.1 SE 17 26 9 14 1018.4 1018.1 0.0
20/06:30pm 17.7 15.2 12.2 70 3.1 SE 17 22 9 12 1018.0 1017.7 0.0
20/06:00pm 17.5 14.8 11.8 69 3.1 SE 17 24 9 13 1017.6 1017.3 0.0
20/05:30pm 18.1 14.8 11.7 66 3.5 SE 20 30 11 16 1017.4 1017.1 0.0
20/05:00pm 18.8 15.9 12.3 66 3.6 SE 19 30 10 16 1016.9 1016.6 0.0
20/04:30pm 18.5 15.5 11.8 65 3.7 SE 19 28 10 15 1016.6 1016.3 0.0
20/04:00pm 19.0 16.3 11.6 62 4.1 SE 17 28 9 15 1016.2 1015.9 0.0
20/03:30pm 19.2 16.4 11.5 61 4.3 SE 17 26 9 14 1016.1 1015.8 0.0
20/03:00pm 19.9 16.5 12.4 62 4.2 SSE 22 32 12 17 1016.7 1016.4 0.0
20/02:30pm 19.2 15.9 11.0 59 4.5 SE 19 32 10 17 1016.6 1016.3 0.0
20/02:00pm 19.9 16.3 11.7 59 4.6 SSE 22 33 12 18 1016.5 1016.2 0.0
20/01:30pm 20.7 17.7 11.9 57 4.9 SSE 19 28 10 15 1016.5 1016.2 0.0
20/01:00pm 19.8 16.8 12.1 61 4.3 SE 19 32 10 17 1016.6 1016.3 0.0
20/12:30pm 19.5 16.0 12.3 63 4.0 SSE 22 30 12 16 1016.8 1016.5 0.0
20/12:00pm 19.7 16.2 10.9 57 4.8 SSE 20 32 11 17 1016.9 1016.6 0.0
20/11:30am 19.6 16.2 10.6 56 4.9 SSE 19 28 10 15 1017.0 1016.7 0.0
20/11:00am 19.2 16.2 10.5 57 4.7 SE 17 28 9 15 1017.2 1016.9 0.0
20/10:30am 19.3 16.3 10.8 58 4.6 SSE 17 26 9 14 1017.3 1017.0 0.0
20/10:00am 19.0 15.4 10.6 58 4.5 SSE 20 30 11 16 1017.5 1017.2 0.0
20/09:30am 18.9 15.6 9.7 55 4.9 SE 17 28 9 15 1017.5 1017.2 0.0
20/09:00am 18.8 15.9 9.8 56 4.8 SE 15 22 8 12 1017.4 1017.1 0.0
20/08:30am 18.6 15.3 9.7 56 4.7 S 17 28 9 15 1017.5 1017.2 0.0
20/08:00am 19.0 15.4 10.0 56 4.8 SE 19 26 10 14 1017.7 1017.4 0.0
20/07:30am 18.5 15.2 9.6 56 4.7 SSE 17 22 9 12 1017.8 1017.5 0.0
20/07:00am 18.1 15.2 9.5 57 4.5 SE 15 19 8 10 1017.7 1017.4 0.0
20/06:30am 17.3 14.2 9.0 58 4.3 SSE 15 20 8 11 1017.5 1017.2 0.0
20/06:00am 16.7 13.9 8.7 59 4.1 SSE 13 24 7 13 1017.4 1017.1 0.0
20/05:30am 16.3 14.3 8.5 60 4.0 SE 9 15 5 8 1017.2 1016.9 0.0
20/05:00am 16.3 14.4 9.0 62 3.8 SSE 9 15 5 8 1016.9 1016.6 0.0
20/04:30am 16.4 14.1 9.1 62 3.8 SSE 11 17 6 9 1016.6 1016.3 0.0
20/04:00am 16.4 14.6 9.3 63 3.7 SSE 9 17 5 9 1016.3 1016.0 0.0
20/03:30am 16.3 13.1 8.5 60 4.0 SSE 15 20 8 11 1016.4 1016.1 0.0
20/03:00am 16.4 13.7 9.1 62 3.8 SE 13 17 7 9 1016.4 1016.1 0.0
20/02:30am 16.1 13.8 9.1 63 3.6 SE 11 17 6 9 1016.3 1016.0 0.0
20/02:00am 16.0 13.7 9.0 63 3.6 SE 11 19 6 10 1016.4 1016.1 0.0
20/01:30am 15.9 13.6 9.1 64 3.5 SSE 11 17 6 9 1016.5 1016.2 0.0
20/01:00am 16.0 13.7 9.0 63 3.6 SSE 11 17 6 9 1016.5 1016.2 0.0
20/12:30am 16.5 14.4 9.7 64 3.6 SSE 11 17 6 9 1016.5 1016.2 0.0
20/12:00am 16.1 13.9 9.3 64 3.5 SE 11 17 6 9 1016.8 1016.5 0.0
 
Date/Time
EDT
Temp
°C
App
Temp
°C
Dew
Point
°C
Rel
Hum
%
Delta-T
°C
Wind Press
QNH
hPa
Press
MSL
hPa
Rain since
9am
mm
Dir  Spd
km/h
Gust
km/h
Spd
kts
Gust
kts
19/11:30pm 16.0 13.4 9.4 65 3.4 SSE 13 19 7 10 1016.7 1016.4 0.0
19/11:00pm 15.8 13.7 9.7 67 3.2 SSE 11 15 6 8 1016.8 1016.5 0.0
19/10:30pm 16.0 14.2 9.4 65 3.4 ESE 9 13 5 7 1016.8 1016.5 0.0
19/10:00pm 15.9 14.1 9.6 66 3.3 SSE 9 13 5 7 1016.9 1016.6 0.0
19/09:30pm 16.1 14.4 9.8 66 3.3 ESE 9 15 5 8 1017.0 1016.7 0.0
19/09:00pm 16.1 14.0 9.8 66 3.3 SE 11 15 6 8 1016.8 1016.5 0.0
19/08:30pm 16.3 14.2 9.9 66 3.4 ESE 11 17 6 9 1016.6 1016.3 0.0
19/08:00pm 16.3 14.6 9.9 66 3.4 ESE 9 15 5 8 1016.3 1016.0 0.0
19/07:30pm 16.7 14.3 10.1 65 3.5 SE 13 19 7 10 1016.0 1015.7 0.0
19/07:00pm 16.6 14.2 10.0 65 3.5 ESE 13 20 7 11 1015.6 1015.2 0.0
19/06:30pm 16.9 14.2 10.5 66 3.4 SE 15 19 8 10 1015.4 1015.0 0.0
19/06:00pm 17.4 14.5 11.0 66 3.5 SE 17 26 9 14 1015.1 1014.7 0.0
19/05:30pm 18.1 15.1 11.9 67 3.4 SSE 19 30 10 16 1014.8 1014.4 0.0
19/05:00pm 18.4 15.1 11.7 65 3.7 SSE 20 28 11 15 1014.8 1014.4 0.0
19/04:30pm 19.2 15.1 11.5 61 4.3 SSE 24 32 13 17 1014.7 1014.3 0.0
19/04:00pm 19.1 14.7 10.4 57 4.7 SSE 24 32 13 17 1014.7 1014.3 0.0
19/03:30pm 19.7 15.5 11.2 58 4.7 SSE 24 33 13 18 1014.7 1014.3 0.0
19/03:00pm 20.0 16.2 12.3 61 4.3 SSE 24 32 13 17 1014.8 1014.4 0.0
19/02:30pm 19.5 15.5 11.8 61 4.3 SSE 24 35 13 19 1014.9 1014.5 0.0
19/02:00pm 19.6 15.8 12.4 63 4.0 SSE 24 37 13 20 1015.0 1014.6 0.0
19/01:30pm 20.6 16.5 12.8 61 4.4 SSE 26 35 14 19 1015.2 1014.8 0.0
19/01:00pm 20.1 16.4 12.6 62 4.2 SSE 24 32 13 17 1015.6 1015.2 0.0
19/12:30pm 20.7 16.8 12.1 58 4.8 SSE 24 33 13 18 1015.9 1015.6 0.0
19/12:00pm 20.5 16.4 11.4 56 5.0 SSE 24 32 13 17 1015.9 1015.6 0.0
19/11:30am 20.2 16.4 12.4 61 4.4 SSE 24 32 13 17 1016.0 1015.7 0.0
19/11:00am 20.2 16.2 11.7 58 4.7 SSE 24 37 13 20 1016.1 1015.8 0.0
19/10:30am 20.5 16.8 12.7 61 4.4 SE 24 33 13 18 1016.1 1015.8 0.0
19/10:00am 19.6 15.7 12.1 62 4.2 SSE 24 33 13 18 1016.0 1015.7 0.0
19/09:30am 20.2 16.1 12.7 62 4.3 SSE 26 35 14 19 1016.0 1015.7 0.0
19/09:00am 20.4 16.1 13.1 63 4.2 SSE 28 37 15 20 1016.1 1015.8 0.0
19/08:30am 19.1 14.8 12.1 64 3.9 SSE 26 33 14 18 1016.2 1015.9 0.0
19/08:00am 18.9 13.7 11.7 63 4.0 SSE 30 41 16 22 1016.1 1015.8 1.2
19/07:30am 18.8 14.1 12.1 65 3.7 SSE 28 35 15 19 1015.8 1015.5 1.2
19/07:00am 18.3 13.9 11.8 66 3.6 SSE 26 39 14 21 1015.3 1014.9 1.2
19/06:30am 17.9 13.8 11.5 66 3.5 SSE 24 37 13 20 1015.4 1015.0 1.2
19/06:00am 17.6 13.6 11.9 69 3.1 S 24 33 13 18 1015.0 1014.6 1.2
19/05:30am 17.1 13.3 12.4 74 2.6 SSE 24 41 13 22 1014.6 1014.2 1.2
19/05:00am 17.0 12.7 12.1 73 2.7 S 26 35 14 19 1014.4 1014.0 1.2
19/04:30am 17.2 12.9 13.3 78 2.2 S 28 37 15 20 1014.1 1013.7 1.2
19/04:00am 17.4 14.1 13.9 80 2.0 S 24 37 13 20 1013.9 1013.5 1.2
19/03:30am 17.4 14.8 13.9 80 2.0 S 20 32 11 17 1013.8 1013.4 1.2
19/03:00am 17.2 13.8 13.7 80 2.0 SSE 24 32 13 17 1013.7 1013.3 1.2
19/02:30am 17.1 14.0 13.4 79 2.1 SSE 22 30 12 16 1013.5 1013.2 1.2
19/02:00am 17.1 15.1 13.8 81 1.9 S 17 22 9 12 1013.7 1013.3 1.2
19/01:30am 17.1 14.8 14.0 82 1.8 S 19 26 10 14 1013.8 1013.4 1.2
19/01:04am 17.2 14.9 14.1 82 1.8 S 19 28 10 15 1013.9 1013.5 1.2
19/01:00am 17.2 14.8 13.9 81 1.9 S 19 28 10 15 1014.0 1013.6 1.2
19/12:30am 17.4 15.3 14.7 84 1.6 S 19 30 10 16 1014.2 1013.8 1.2
19/12:20am 17.4 15.2 14.9 85 1.5 S 20 28 11 15 1014.3 1013.9 1.2
19/12:00am 17.5 15.8 14.6 83 1.7 S 17 26 9 14 1014.5 1014.1 1.2
 
Date/Time
EDT
Temp
°C
App
Temp
°C
Dew
Point
°C
Rel
Hum
%
Delta-T
°C
Wind Press
QNH
hPa
Press
MSL
hPa
Rain since
9am
mm
Dir  Spd
km/h
Gust
km/h
Spd
kts
Gust
kts
18/11:45pm 17.4 15.6 14.5 83 1.7 S 17 26 9 14 1014.6 1014.2 1.2
18/11:30pm 17.4 15.1 14.7 84 1.6 S 20 28 11 15 1014.9 1014.5 1.2
18/11:00pm 17.4 15.1 14.7 84 1.6 S 20 30 11 16 1015.0 1014.6 1.2
18/10:50pm 17.3 16.6 15.3 88 1.2 S 13 22 7 12 1015.1 1014.7 1.2
18/10:48pm 17.2 16.5 15.4 89 1.1 S 13 19 7 10 1015.1 1014.7 1.2
18/10:34pm 17.0 15.4 15.0 88 1.2 SSW 17 26 9 14 1015.2 1014.8 1.0
18/10:30pm 17.4 15.8 14.9 85 1.5 SSW 17 24 9 13 1015.1 1014.7 0.6
18/10:00pm 17.4 15.5 14.1 81 1.9 SSW 17 24 9 13 1015.2 1014.8 0.4
18/09:30pm 17.7 15.2 14.2 80 2.0 SSW 20 30 11 16 1015.3 1014.9 0.4
18/09:00pm 17.8 15.6 14.5 81 1.9 SSW 19 28 10 15 1014.9 1014.5 0.4
18/08:30pm 18.1 16.7 14.6 80 2.0 SW 15 22 8 12 1014.8 1014.4 0.4
18/08:00pm 18.0 15.8 14.3 79 2.1 SSW 19 28 10 15 1014.6 1014.2 0.4
18/07:35pm 18.2 15.5 14.7 80 2.0 SSW 22 30 12 16 1014.4 1014.0 0.4
18/07:30pm 18.3 16.1 14.8 80 2.0 SW 20 30 11 16 1014.4 1014.0 0.4
18/07:00pm 18.3 16.7 15.0 81 1.9 SW 17 26 9 14 1014.3 1013.9 0.4
18/06:38pm 18.2 17.0 15.1 82 1.8 SW 15 20 8 11 1014.1 1013.7 0.4
18/06:30pm 18.2 17.0 15.1 82 1.8 SW 15 19 8 10 1014.1 1013.7 0.4
18/06:00pm 18.5 17.1 14.6 78 2.3 SW 15 20 8 11 1013.8 1013.4 0.4
18/05:30pm 18.7 17.1 15.0 79 2.2 SW 17 20 9 11 1013.5 1013.2 0.4
18/05:00pm 19.5 17.5 15.0 75 2.6 SW 19 24 10 13 1013.4 1013.1 0.4
18/04:30pm 20.0 18.8 15.0 73 3.0 SSW 15 20 8 11 1012.9 1012.6 0.4
18/04:00pm 19.8 18.5 15.9 78 2.3 SW 17 24 9 13 1012.7 1012.4 0.4
18/03:30pm 19.3 17.6 15.8 80 2.1 SSW 19 28 10 15 1012.8 1012.5 0.4
18/03:29pm 19.4 17.8 15.9 80 2.1 SSW 19 28 10 15 1012.8 1012.5 0.4
18/03:00pm 19.7 17.5 16.0 79 2.2 SSW 22 28 12 15 1012.8 1012.5 0.4
18/02:30pm 19.9 18.2 15.7 77 2.5 W 19 30 10 16 1012.5 1012.2 0.4
18/02:00pm 20.7 22.1 17.3 81 2.1 WNW 6 11 3 6 1011.8 1011.5 0.4
18/01:30pm 20.6 20.2 17.2 81 2.1 NW 15 24 8 13 1013.5 1013.2 0.4
18/01:00pm 21.1 20.1 16.7 76 2.7 NW 17 22 9 12 1013.9 1013.5 0.4
18/12:30pm 21.2 20.3 16.8 76 2.7 NW 17 22 9 12 1013.9 1013.5 0.4
18/12:00pm 21.5 20.5 16.7 74 2.9 NW 17 26 9 14 1014.3 1013.9 0.4
18/11:30am 22.5 21.3 17.0 71 3.4 WNW 19 28 10 15 1014.4 1014.0 0.4
18/11:00am 21.5 20.2 16.7 74 2.9 NW 19 30 10 16 1014.8 1014.4 0.4

Other formats

Comma delimited format used in spreadsheet applications
http://www.bom.gov.au/fwo/IDN60801/IDN60801.94996.axf

JavaScript Object Notation format (JSON) in row-major order
http://www.bom.gov.au/fwo/IDN60801/IDN60801.94996.json

Data quality

Most of these data are generated automatically and are frequently updated. Quality checks on data are not normally performed. It is possible for incorrect values to appear. Refer to information at About Latest Weather Observations and please check the disclaimer before using these data.